createdAt,value
2022-12-27T00:00:00.000Z,1.12
2022-12-27T00:15:00.000Z,1.12
2022-12-27T00:30:00.000Z,1.08
2022-12-27T00:45:00.000Z,1.11
2022-12-27T01:00:00.000Z,1.11
2022-12-27T01:15:00.000Z,1.12
2022-12-27T01:30:00.000Z,1.16
2022-12-27T01:45:00.000Z,1.16
2022-12-27T02:00:00.000Z,1.12
2022-12-27T02:15:00.000Z,1.26
2022-12-27T02:30:00.000Z,1.33
2022-12-27T02:45:00.000Z,1.49
2022-12-27T03:00:00.000Z,1.71
2022-12-27T03:15:00.000Z,1.76
2022-12-27T03:30:00.000Z,1.25
2022-12-27T03:45:00.000Z,1.48
2022-12-27T04:00:00.000Z,1.94
2022-12-27T04:15:00.000Z,3.08
2022-12-27T04:30:00.000Z,1.78
2022-12-27T04:45:00.000Z,1.85
2022-12-27T05:00:00.000Z,1.95
2022-12-27T05:15:00.000Z,2.58
2022-12-27T05:30:00.000Z,3.84
2022-12-27T05:45:00.000Z,3.19
2022-12-27T06:00:00.000Z,2.79
2022-12-27T06:15:00.000Z,2.98
2022-12-27T06:30:00.000Z,4.75
2022-12-27T06:45:00.000Z,4.18
2022-12-27T07:00:00.000Z,4.29
2022-12-27T07:15:00.000Z,7.54
2022-12-27T07:45:00.000Z,6
2022-12-27T07:45:00.000Z,5.27
2022-12-27T08:15:00.000Z,4
2022-12-27T08:15:00.000Z,5.08
2022-12-27T08:30:00.000Z,5.06
2022-12-27T08:45:00.000Z,4.51
2022-12-27T09:00:00.000Z,5.54
2022-12-27T09:15:00.000Z,7.99
2022-12-27T09:30:00.000Z,6.07
2022-12-27T09:45:00.000Z,7.24
2022-12-27T10:00:00.000Z,4.46
2022-12-27T10:15:00.000Z,4.59
2022-12-27T10:30:00.000Z,5.6
2022-12-27T10:45:00.000Z,4.88
2022-12-27T11:00:00.000Z,4.59
2022-12-27T11:15:00.000Z,6.52
2022-12-27T11:30:00.000Z,8.07
2022-12-27T11:45:00.000Z,9.46
2022-12-27T12:00:00.000Z,9.08
2022-12-27T12:15:00.000Z,7.45
2022-12-27T12:30:00.000Z,6.99
2022-12-27T12:45:00.000Z,7.24
2022-12-27T13:00:00.000Z,5.73
2022-12-27T13:15:00.000Z,6.48
2022-12-27T13:30:00.000Z,6.55
2022-12-27T13:45:00.000Z,6.42
2022-12-27T14:00:00.000Z,7.16
2022-12-27T14:15:00.000Z,8.18
2022-12-27T14:30:00.000Z,10.64
2022-12-27T14:45:00.000Z,9.58
2022-12-27T15:00:00.000Z,8.84
2022-12-27T15:15:00.000Z,9.91
2022-12-27T15:30:00.000Z,12.91
2022-12-27T15:45:00.000Z,12.64
2022-12-27T16:00:00.000Z,16.82
2022-12-27T16:15:00.000Z,13.94
2022-12-27T16:30:00.000Z,12.47
2022-12-27T16:45:00.000Z,13.92
2022-12-27T17:00:00.000Z,17.48
2022-12-27T17:15:00.000Z,22.22
2022-12-27T17:30:00.000Z,20.49
2022-12-27T17:45:00.000Z,20.12
2022-12-27T18:00:00.000Z,21.76
2022-12-27T18:15:00.000Z,19.38
2022-12-27T18:30:00.000Z,24.02
2022-12-27T18:45:00.000Z,29.79
2022-12-27T19:00:00.000Z,21.58
2022-12-27T19:15:00.000Z,17.16
2022-12-27T19:30:00.000Z,11.48
2022-12-27T19:45:00.000Z,10.61
2022-12-27T20:00:00.000Z,9.88
2022-12-27T20:15:00.000Z,9.42
2022-12-27T20:30:00.000Z,7.71
2022-12-27T20:45:00.000Z,7.31
2022-12-27T21:00:00.000Z,7.25
2022-12-27T21:15:00.000Z,7.27
2022-12-27T21:30:00.000Z,7.38
2022-12-27T21:45:00.000Z,5.81
2022-12-27T22:00:00.000Z,5.98
2022-12-27T22:15:00.000Z,5.25
2022-12-27T22:30:00.000Z,5.02
2022-12-27T22:45:00.000Z,6.13
2022-12-27T23:00:00.000Z,8.55
2022-12-27T23:15:00.000Z,8.6
2022-12-27T23:30:00.000Z,7.53
2022-12-27T23:45:00.000Z,9.72
